createdAt,value
2023-05-05T00:01:05.003Z,3.17
2023-05-05T00:03:35.327Z,3.00
2023-05-05T00:06:03.682Z,3.22
2023-05-05T00:08:31.779Z,2.70
2023-05-05T00:10:59.646Z,3.47
2023-05-05T00:13:27.823Z,3.00
2023-05-05T00:15:55.737Z,3.58
2023-05-05T00:18:25.004Z,3.28
2023-05-05T00:20:53.338Z,3.42
2023-05-05T00:23:21.353Z,2.60
2023-05-05T00:25:49.264Z,3.72
2023-05-05T00:28:17.177Z,3.08
2023-05-05T00:30:45.148Z,4.05
2023-05-05T00:33:13.308Z,4.35
2023-05-05T00:35:42.724Z,3.75
2023-05-05T00:38:10.619Z,3.80
2023-05-05T00:40:38.962Z,3.42
2023-05-05T00:43:07.694Z,3.05
2023-05-05T00:45:37.075Z,3.22
2023-05-05T00:48:05.466Z,2.95
2023-05-05T00:50:33.395Z,3.80
2023-05-05T00:53:03.453Z,3.13
2023-05-05T00:55:31.857Z,4.03
2023-05-05T00:58:00.596Z,3.55
2023-05-05T01:00:29.003Z,3.83
2023-05-05T01:02:57.225Z,2.85
2023-05-05T01:05:25.871Z,2.85
2023-05-05T01:08:07.201Z,2.85
2023-05-05T01:10:37.981Z,3.92
2023-05-05T01:13:15.080Z,3.30
2023-05-05T01:15:47.550Z,2.85
2023-05-05T01:18:20.033Z,2.65
2023-05-05T01:20:52.683Z,3.08
2023-05-05T01:23:50.163Z,3.38
2023-05-05T01:26:35.986Z,3.65
2023-05-05T01:29:15.604Z,3.35
2023-05-05T01:31:51.790Z,3.45
2023-05-05T01:34:25.216Z,3.67
2023-05-05T01:36:58.223Z,4.45
2023-05-05T01:41:58.929Z,2.65
2023-05-05T01:44:29.057Z,2.90
2023-05-05T01:46:59.931Z,3.63
2023-05-05T01:49:28.932Z,3.03
2023-05-05T01:51:59.549Z,2.55
2023-05-05T01:54:29.974Z,3.72
2023-05-05T01:56:58.631Z,3.53
2023-05-05T01:59:27.658Z,3.45
2023-05-05T02:01:56.387Z,2.90
2023-05-05T02:04:26.175Z,2.80
2023-05-05T02:06:54.617Z,3.80
2023-05-05T02:09:22.695Z,3.45
2023-05-05T02:11:50.675Z,3.42
2023-05-05T02:14:20.779Z,3.53
2023-05-05T02:16:48.670Z,4.40
2023-05-05T02:19:17.274Z,3.03
2023-05-05T02:21:46.522Z,4.10
2023-05-05T02:24:14.427Z,3.50
2023-05-05T02:26:44.333Z,3.88
2023-05-05T02:29:17.826Z,3.33
2023-05-05T02:31:49.973Z,3.38
2023-05-05T02:34:27.765Z,3.10
2023-05-05T02:36:59.712Z,2.88
2023-05-05T02:39:33.327Z,3.63
2023-05-05T02:42:05.005Z,3.47
2023-05-05T02:44:34.167Z,3.42
2023-05-05T02:47:03.871Z,3.03
2023-05-05T02:49:32.604Z,2.83
2023-05-05T02:52:02.538Z,2.97
2023-05-05T02:54:35.216Z,2.50
2023-05-05T02:57:08.803Z,2.72
2023-05-05T02:59:47.384Z,2.58
2023-05-05T03:02:21.371Z,2.80
2023-05-05T03:04:51.813Z,3.15
2023-05-05T03:07:27.396Z,2.63
2023-05-05T03:09:59.047Z,2.58
2023-05-05T03:12:29.748Z,1.92
2023-05-05T03:15:10.339Z,2.17
2023-05-05T03:17:39.075Z,2.40
2023-05-05T03:20:08.835Z,2.35
2023-05-05T03:22:41.849Z,2.25
2023-05-05T03:25:13.647Z,1.98
2023-05-05T03:27:42.122Z,1.60
2023-05-05T03:30:12.741Z,1.90
2023-05-05T03:32:47.854Z,2.85
2023-05-05T03:35:16.156Z,2.00
2023-05-05T03:37:45.727Z,2.00
2023-05-05T03:40:17.725Z,2.05
2023-05-05T03:42:45.840Z,1.48
2023-05-05T03:45:14.203Z,1.77
2023-05-05T03:47:42.236Z,1.60
2023-05-05T03:50:11.366Z,1.85
2023-05-05T03:52:39.884Z,2.08
2023-05-05T03:55:10.241Z,1.42
2023-05-05T03:57:38.134Z,2.25
2023-05-05T04:00:11.822Z,1.73
2023-05-05T04:02:45.562Z,1.65
2023-05-05T04:05:16.240Z,1.55
2023-05-05T04:07:44.660Z,1.63
2023-05-05T04:10:13.939Z,2.08
2023-05-05T04:12:41.938Z,1.55
2023-05-05T04:15:11.012Z,1.60
2023-05-05T04:17:39.070Z,1.88
2023-05-05T04:20:08.540Z,1.50
2023-05-05T04:22:36.944Z,2.10
2023-05-05T04:25:06.638Z,1.65
2023-05-05T04:27:36.275Z,1.63
2023-05-05T04:30:05.719Z,1.77
2023-05-05T04:32:35.034Z,1.45
2023-05-05T04:35:02.987Z,1.25
2023-05-05T04:37:31.285Z,2.10
2023-05-05T04:40:00.491Z,1.15
2023-05-05T04:42:29.291Z,1.73
2023-05-05T04:44:59.266Z,1.75
2023-05-05T04:47:27.304Z,1.70
2023-05-05T04:49:56.048Z,1.42
2023-05-05T04:52:24.104Z,2.35
2023-05-05T04:54:53.052Z,1.48
2023-05-05T04:57:20.968Z,1.48
2023-05-05T04:59:48.968Z,1.70
2023-05-05T05:02:18.356Z,1.73
2023-05-05T05:04:46.851Z,2.10
2023-05-05T05:07:15.480Z,1.33
2023-05-05T05:09:43.725Z,1.80
2023-05-05T05:12:11.654Z,2.08
2023-05-05T05:14:39.618Z,7.65
2023-05-05T05:17:08.014Z,4.15
2023-05-05T05:19:37.385Z,1.60
2023-05-05T05:22:05.658Z,3.35
2023-05-05T05:24:36.739Z,6.10
2023-05-05T05:27:09.828Z,2.53
2023-05-05T05:29:38.828Z,1.83
2023-05-05T05:32:06.995Z,3.55
2023-05-05T05:34:35.454Z,1.95
2023-05-05T05:37:05.985Z,2.28
2023-05-05T05:39:34.289Z,1.73
2023-05-05T05:42:02.834Z,1.38
2023-05-05T05:44:31.111Z,2.13
2023-05-05T05:46:59.686Z,2.00
2023-05-05T05:49:28.082Z,2.40
2023-05-05T05:51:56.883Z,2.08
2023-05-05T05:54:26.578Z,1.90
2023-05-05T05:56:54.464Z,2.60
2023-05-05T05:59:22.569Z,3.85
2023-05-05T06:01:50.534Z,1.85
2023-05-05T06:04:18.704Z,2.08
2023-05-05T06:06:46.650Z,3.00
2023-05-05T06:09:14.959Z,2.03
2023-05-05T06:11:44.719Z,2.80
2023-05-05T06:14:12.707Z,2.83
2023-05-05T06:16:40.774Z,5.13
2023-05-05T06:19:12.596Z,3.03
2023-05-05T06:21:40.865Z,2.22
2023-05-05T06:24:08.824Z,1.77
2023-05-05T06:26:36.932Z,1.95
2023-05-05T06:29:06.828Z,1.88
2023-05-05T06:31:34.701Z,1.90
2023-05-05T06:34:02.959Z,2.40
2023-05-05T06:36:32.041Z,2.38
2023-05-05T06:38:59.963Z,1.70
2023-05-05T06:41:27.835Z,2.95
2023-05-05T06:43:58.548Z,2.75
2023-05-05T06:46:28.230Z,3.90
2023-05-05T06:48:56.200Z,1.70
2023-05-05T06:51:24.056Z,2.03
2023-05-05T06:53:52.324Z,1.55
2023-05-05T06:56:20.226Z,2.10
2023-05-05T06:58:48.097Z,3.08
2023-05-05T07:01:16.032Z,2.00
2023-05-05T07:03:45.836Z,1.60
2023-05-05T07:06:13.801Z,1.88
2023-05-05T07:08:41.678Z,1.83
2023-05-05T07:11:09.556Z,1.90
2023-05-05T07:13:37.394Z,1.90
2023-05-05T07:16:06.585Z,1.95
2023-05-05T07:18:34.930Z,2.28
2023-05-05T07:21:05.942Z,1.65
2023-05-05T07:23:35.129Z,1.85
2023-05-05T07:26:02.977Z,1.67
2023-05-05T07:28:30.828Z,1.88
2023-05-05T07:30:58.685Z,2.20
2023-05-05T07:33:27.682Z,1.50
2023-05-05T07:35:55.651Z,1.52
2023-05-05T07:38:25.721Z,2.05
2023-05-05T07:40:53.654Z,2.33
2023-05-05T07:43:21.551Z,1.40
2023-05-05T07:45:49.733Z,1.80
2023-05-05T07:48:17.643Z,2.15
2023-05-05T07:50:45.610Z,1.85
2023-05-05T07:53:15.082Z,1.48
2023-05-05T07:55:44.589Z,1.77
2023-05-05T07:58:12.481Z,1.98
2023-05-05T08:00:40.957Z,1.88
2023-05-05T08:03:11.606Z,2.35
2023-05-05T08:05:40.844Z,2.17
2023-05-05T08:08:08.843Z,2.60
2023-05-05T08:10:36.692Z,2.17
2023-05-05T08:13:06.256Z,1.67
2023-05-05T08:15:34.173Z,2.42
2023-05-05T08:18:02.112Z,1.80
2023-05-05T08:20:30.589Z,1.90
2023-05-05T08:22:58.853Z,2.00
2023-05-05T08:25:27.490Z,2.22
2023-05-05T08:27:55.710Z,2.10
2023-05-05T08:30:24.944Z,1.35
2023-05-05T08:32:52.925Z,1.70
2023-05-05T08:35:21.030Z,1.60
2023-05-05T08:37:48.994Z,1.55
2023-05-05T08:40:17.199Z,2.50
2023-05-05T08:42:46.431Z,2.20
2023-05-05T08:45:14.526Z,1.70
2023-05-05T08:47:44.583Z,2.25
2023-05-05T08:50:12.998Z,1.42
2023-05-05T08:52:44.333Z,2.10
2023-05-05T08:55:20.784Z,1.92
2023-05-05T08:57:52.959Z,1.65
2023-05-05T09:00:22.040Z,1.67
2023-05-05T09:02:51.899Z,2.10
2023-05-05T09:05:20.637Z,1.67
2023-05-05T09:07:48.976Z,2.40
2023-05-05T09:10:16.990Z,1.80
2023-05-05T09:12:45.525Z,1.75
2023-05-05T09:15:14.674Z,1.80
2023-05-05T09:17:43.108Z,1.58
2023-05-05T09:20:14.014Z,2.10
2023-05-05T09:22:42.900Z,2.63
2023-05-05T09:25:12.643Z,1.50
2023-05-05T09:27:42.092Z,1.95
2023-05-05T09:30:12.608Z,1.65
2023-05-05T09:32:47.721Z,1.70
2023-05-05T09:35:19.188Z,1.52
2023-05-05T09:37:48.611Z,2.15
2023-05-05T09:40:17.795Z,1.92
2023-05-05T09:42:46.004Z,2.30
2023-05-05T09:45:27.385Z,1.70
2023-05-05T09:47:59.899Z,1.90
2023-05-05T09:50:32.639Z,1.30
2023-05-05T09:53:02.464Z,1.80
2023-05-05T09:55:31.370Z,1.98
2023-05-05T09:58:06.367Z,3.63
2023-05-05T10:00:39.624Z,1.48
2023-05-05T10:03:07.743Z,2.00
2023-05-05T10:05:48.184Z,1.15
2023-05-05T10:08:16.248Z,1.00
2023-05-05T10:10:52.415Z,1.40
2023-05-05T10:13:21.661Z,1.27
2023-05-05T10:15:51.938Z,1.10
2023-05-05T10:18:24.865Z,1.13
2023-05-05T10:20:59.147Z,1.55
2023-05-05T10:23:30.238Z,1.10
2023-05-05T10:26:02.964Z,1.27
2023-05-05T10:28:35.632Z,1.75
2023-05-05T10:31:10.086Z,1.38
2023-05-05T10:33:47.080Z,1.20
2023-05-05T10:36:17.930Z,1.30
2023-05-05T10:38:46.707Z,2.05
2023-05-05T10:41:15.069Z,2.00
2023-05-05T10:43:43.572Z,1.30
2023-05-05T10:46:11.729Z,1.30
2023-05-05T10:48:46.137Z,1.35
2023-05-05T10:51:39.288Z,1.38
2023-05-05T10:54:13.490Z,1.55
2023-05-05T10:56:42.274Z,1.92
2023-05-05T10:59:40.451Z,1.45
2023-05-05T11:02:25.618Z,1.92
2023-05-05T11:05:07.522Z,1.30
2023-05-05T11:07:37.062Z,1.77
2023-05-05T11:10:06.153Z,1.30
2023-05-05T11:12:38.772Z,0.93
2023-05-05T11:15:37.802Z,1.52
2023-05-05T11:18:08.293Z,1.13
2023-05-05T11:21:07.270Z,1.25
2023-05-05T11:23:37.245Z,1.30
2023-05-05T11:26:05.190Z,1.60
2023-05-05T11:28:33.220Z,1.42
2023-05-05T11:31:18.408Z,1.15
2023-05-05T11:33:46.801Z,1.48
2023-05-05T11:36:16.066Z,1.13
2023-05-05T11:39:00.037Z,1.77
2023-05-05T11:41:36.950Z,1.30
2023-05-05T11:44:11.896Z,1.40
2023-05-05T11:46:40.987Z,1.40
2023-05-05T11:49:10.032Z,1.10
2023-05-05T11:51:37.996Z,1.73
2023-05-05T11:54:07.355Z,1.42
2023-05-05T11:56:35.905Z,2.17
2023-05-05T11:59:09.334Z,1.48
2023-05-05T12:01:40.937Z,2.05
2023-05-05T12:04:09.737Z,1.58
2023-05-05T12:06:37.755Z,2.00
2023-05-05T12:09:07.140Z,1.70
2023-05-05T12:11:35.044Z,1.73
2023-05-05T12:14:10.433Z,1.08
2023-05-05T12:16:38.853Z,1.60
2023-05-05T12:19:07.401Z,1.92
2023-05-05T12:21:36.249Z,2.22
2023-05-05T12:24:04.279Z,1.50
2023-05-05T12:26:33.797Z,1.35
2023-05-05T12:29:02.080Z,1.98
2023-05-05T12:31:36.904Z,1.67
2023-05-05T12:34:05.549Z,1.60
2023-05-05T12:36:34.095Z,1.30
2023-05-05T12:39:02.034Z,1.67
2023-05-05T12:41:30.003Z,1.80
2023-05-05T12:44:00.345Z,1.92
2023-05-05T12:46:31.208Z,1.45
2023-05-05T12:49:05.179Z,1.77
2023-05-05T12:51:35.997Z,2.40
2023-05-05T12:54:05.732Z,1.50
2023-05-05T12:56:37.545Z,2.72
2023-05-05T12:59:08.790Z,2.45
2023-05-05T13:01:37.816Z,2.13
2023-05-05T13:04:12.824Z,1.20
2023-05-05T13:06:41.434Z,1.75
2023-05-05T13:09:10.068Z,1.63
2023-05-05T13:11:38.605Z,1.90
2023-05-05T13:14:08.344Z,1.73
2023-05-05T13:16:36.428Z,1.52
2023-05-05T13:19:04.354Z,1.23
2023-05-05T13:21:32.711Z,1.65
2023-05-05T13:24:18.286Z,2.05
2023-05-05T13:26:48.830Z,1.70
2023-05-05T13:29:18.430Z,1.92
2023-05-05T13:31:47.228Z,1.67
2023-05-05T13:34:15.530Z,1.75
2023-05-05T13:36:43.365Z,1.75
2023-05-05T13:39:11.325Z,1.58
2023-05-05T13:41:42.241Z,1.95
2023-05-05T13:44:10.199Z,1.55
2023-05-05T13:46:39.446Z,1.83
2023-05-05T13:49:07.429Z,1.58
2023-05-05T13:51:35.690Z,1.60
2023-05-05T13:54:04.041Z,1.70
2023-05-05T13:56:31.972Z,1.58
2023-05-05T13:58:59.890Z,1.77
2023-05-05T14:01:27.876Z,1.77
2023-05-05T14:03:57.851Z,1.70
2023-05-05T14:06:26.481Z,1.45
2023-05-05T14:08:54.551Z,2.17
2023-05-05T14:11:22.962Z,1.85
2023-05-05T14:13:52.041Z,1.90
2023-05-05T14:16:20.173Z,1.40
2023-05-05T14:18:48.320Z,1.48
2023-05-05T14:21:17.676Z,1.33
2023-05-05T14:23:45.621Z,1.65
2023-05-05T14:26:13.588Z,1.50
2023-05-05T14:28:42.309Z,1.83
2023-05-05T14:31:11.261Z,1.40
2023-05-05T14:33:39.457Z,2.05
2023-05-05T14:36:07.947Z,1.58
2023-05-05T14:38:37.377Z,1.65
2023-05-05T14:41:05.773Z,1.55
2023-05-05T14:43:33.737Z,1.58
2023-05-05T14:46:06.733Z,1.40
2023-05-05T14:48:35.236Z,1.67
2023-05-05T14:51:04.411Z,1.88
2023-05-05T14:53:32.672Z,2.60
2023-05-05T14:56:03.283Z,2.10
2023-05-05T14:58:31.465Z,1.80
2023-05-05T15:01:00.784Z,1.33
2023-05-05T15:03:29.070Z,2.22
2023-05-05T15:05:57.381Z,1.45
2023-05-05T15:08:25.368Z,1.80
2023-05-05T15:10:54.126Z,1.60
2023-05-05T15:13:23.632Z,1.65
2023-05-05T15:15:51.762Z,1.48
2023-05-05T15:18:20.121Z,1.90
2023-05-05T15:20:47.995Z,1.40
2023-05-05T15:23:16.166Z,2.00
2023-05-05T15:25:44.107Z,1.88
2023-05-05T15:28:11.947Z,1.67
2023-05-05T15:30:41.495Z,1.90
2023-05-05T15:33:09.415Z,1.30
2023-05-05T15:35:37.397Z,1.67
2023-05-05T15:38:05.578Z,1.13
2023-05-05T15:40:33.501Z,1.77
2023-05-05T15:43:01.349Z,1.45
2023-05-05T15:45:29.255Z,1.55
2023-05-05T15:47:58.624Z,1.65
2023-05-05T15:50:26.816Z,2.22
2023-05-05T15:52:56.806Z,1.10
2023-05-05T15:55:25.089Z,1.65
2023-05-05T15:57:53.044Z,2.15
2023-05-05T16:00:21.517Z,1.88
2023-05-05T16:02:49.478Z,1.90
2023-05-05T16:05:20.712Z,2.13
2023-05-05T16:07:50.698Z,2.15
2023-05-05T16:10:19.468Z,1.40
2023-05-05T16:12:47.435Z,2.00
2023-05-05T16:15:15.733Z,1.55
2023-05-05T16:17:43.958Z,1.65
2023-05-05T16:20:12.926Z,1.52
2023-05-05T16:22:42.378Z,1.63
2023-05-05T16:25:11.130Z,1.58
2023-05-05T16:27:39.286Z,1.40
2023-05-05T16:30:08.874Z,1.60
2023-05-05T16:32:36.769Z,1.40
2023-05-05T16:35:07.288Z,2.15
2023-05-05T16:37:35.584Z,2.03
2023-05-05T16:40:06.016Z,1.50
2023-05-05T16:42:34.042Z,2.58
2023-05-05T16:45:01.906Z,1.45
2023-05-05T16:47:29.819Z,1.08
2023-05-05T16:49:58.153Z,1.88
2023-05-05T16:52:26.053Z,1.70
2023-05-05T16:54:55.635Z,2.47
2023-05-05T16:57:25.201Z,1.77
2023-05-05T16:59:56.206Z,2.03
2023-05-05T17:02:24.175Z,1.40
2023-05-05T17:04:52.194Z,2.70
2023-05-05T17:07:20.113Z,1.80
2023-05-05T17:09:48.341Z,1.70
2023-05-05T17:12:16.300Z,2.30
2023-05-05T17:14:46.348Z,1.45
2023-05-05T17:17:14.316Z,2.30
2023-05-05T17:19:42.779Z,1.77
2023-05-05T17:22:10.901Z,1.95
2023-05-05T17:24:39.454Z,1.27
2023-05-05T17:27:07.604Z,1.17
2023-05-05T17:29:40.770Z,1.60
2023-05-05T17:32:10.544Z,1.83
2023-05-05T17:34:38.676Z,1.45
2023-05-05T17:37:06.656Z,1.80
2023-05-05T17:39:34.634Z,1.10
2023-05-05T17:42:02.685Z,1.33
2023-05-05T17:44:31.482Z,2.03
2023-05-05T17:46:59.484Z,1.92
2023-05-05T17:49:28.740Z,1.92
2023-05-05T17:51:56.609Z,1.98
2023-05-05T17:54:30.855Z,1.30
2023-05-05T17:57:02.528Z,1.75
2023-05-05T17:59:33.412Z,1.67
2023-05-05T18:02:04.333Z,1.40
2023-05-05T18:04:37.404Z,1.60
2023-05-05T18:07:05.994Z,1.10
2023-05-05T18:09:37.150Z,1.42
2023-05-05T18:12:08.569Z,1.75
2023-05-05T18:14:39.418Z,1.42
2023-05-05T18:17:10.351Z,2.00
2023-05-05T18:19:46.622Z,1.75
2023-05-05T18:22:19.607Z,1.38
2023-05-05T18:24:50.509Z,1.90
2023-05-05T18:27:21.390Z,2.08
2023-05-05T18:29:53.138Z,1.70
2023-05-05T18:32:24.441Z,1.35
2023-05-05T18:34:56.793Z,1.52
2023-05-05T18:37:27.939Z,2.15
2023-05-05T18:39:58.879Z,1.40
2023-05-05T18:42:29.791Z,1.85
2023-05-05T18:45:00.771Z,1.85
2023-05-05T18:47:31.833Z,1.73
2023-05-05T18:50:04.591Z,1.80
2023-05-05T18:52:35.576Z,1.75
2023-05-05T18:55:07.535Z,1.27
2023-05-05T18:57:38.766Z,1.35
2023-05-05T19:00:11.438Z,1.55
2023-05-05T19:02:41.357Z,1.65
2023-05-05T19:05:12.865Z,1.80
2023-05-05T19:07:42.509Z,1.90
2023-05-05T19:10:12.753Z,1.60
2023-05-05T19:12:43.083Z,1.75
2023-05-05T19:15:13.266Z,1.80
2023-05-05T19:17:42.100Z,1.40
2023-05-05T19:20:13.444Z,1.15
2023-05-05T19:22:42.839Z,1.40
2023-05-05T19:25:14.488Z,1.75
2023-05-05T19:27:43.682Z,1.52
2023-05-05T19:30:13.744Z,1.48
2023-05-05T19:32:44.617Z,1.30
2023-05-05T19:35:17.384Z,1.80
2023-05-05T19:37:48.637Z,1.50
2023-05-05T19:40:19.767Z,1.88
2023-05-05T19:42:50.992Z,1.48
2023-05-05T19:45:22.214Z,1.08
2023-05-05T19:47:53.184Z,1.40
2023-05-05T19:50:26.350Z,1.40
2023-05-05T19:52:57.958Z,1.77
2023-05-05T19:55:28.950Z,1.95
2023-05-05T19:57:59.912Z,1.23
2023-05-05T20:00:31.289Z,1.42
2023-05-05T20:03:02.338Z,1.50
2023-05-05T20:05:34.712Z,1.40
2023-05-05T20:08:06.215Z,1.52
2023-05-05T20:10:37.154Z,1.80
2023-05-05T20:13:08.064Z,1.23
2023-05-05T20:15:39.470Z,1.60
2023-05-05T20:18:10.579Z,1.60
2023-05-05T20:20:43.183Z,1.83
2023-05-05T20:23:14.208Z,1.40
2023-05-05T20:25:45.542Z,1.60
2023-05-05T20:28:16.409Z,1.30
2023-05-05T20:30:48.224Z,1.30
2023-05-05T20:33:19.133Z,1.65
2023-05-05T20:35:51.430Z,1.83
2023-05-05T20:38:22.793Z,1.75
2023-05-05T20:40:53.703Z,1.50
2023-05-05T20:43:25.267Z,1.55
2023-05-05T20:45:56.577Z,1.58
2023-05-05T20:48:27.534Z,1.40
2023-05-05T20:50:59.882Z,1.60
2023-05-05T20:53:30.727Z,1.45
2023-05-05T20:56:01.728Z,1.23
2023-05-05T20:58:32.680Z,1.38
2023-05-05T21:01:03.600Z,1.38
2023-05-05T21:03:34.503Z,1.48
2023-05-05T21:06:07.087Z,2.10
2023-05-05T21:08:39.505Z,1.40
2023-05-05T21:11:10.599Z,1.80
2023-05-05T21:13:41.568Z,1.90
2023-05-05T21:16:12.815Z,1.30
2023-05-05T21:18:46.674Z,1.63
2023-05-05T21:21:18.902Z,1.40
2023-05-05T21:23:49.746Z,1.70
2023-05-05T21:26:21.154Z,2.03
2023-05-05T21:28:52.141Z,1.58
2023-05-05T21:31:23.412Z,1.60
2023-05-05T21:33:54.308Z,1.58
2023-05-05T21:36:27.435Z,1.45
2023-05-05T21:39:00.343Z,1.83
2023-05-05T21:41:31.422Z,1.80
2023-05-05T21:44:02.408Z,1.65
2023-05-05T21:46:33.368Z,1.65
2023-05-05T21:49:12.894Z,1.67
2023-05-05T21:51:46.272Z,1.23
2023-05-05T21:54:17.151Z,2.25
2023-05-05T21:56:48.057Z,1.02
2023-05-05T21:59:18.972Z,1.60
2023-05-05T22:01:50.142Z,1.75
2023-05-05T22:04:19.920Z,1.73
2023-05-05T22:06:51.021Z,1.48
2023-05-05T22:09:19.075Z,1.45
2023-05-05T22:11:49.979Z,1.20
2023-05-05T22:14:21.434Z,1.77
2023-05-05T22:16:52.329Z,2.17
2023-05-05T22:19:24.237Z,1.95
2023-05-05T22:21:57.265Z,1.70
2023-05-05T22:26:58.974Z,2.05
2023-05-05T22:29:29.897Z,1.88
2023-05-05T22:32:00.838Z,1.60
2023-05-05T22:34:31.754Z,1.90
2023-05-05T22:37:04.016Z,0.93
2023-05-05T22:39:34.981Z,1.45
2023-05-05T22:42:06.143Z,1.65
2023-05-05T22:44:37.025Z,1.63
2023-05-05T22:47:09.127Z,1.15
2023-05-05T22:49:40.265Z,1.90
2023-05-05T22:52:12.576Z,1.20
2023-05-05T22:54:43.521Z,1.65
2023-05-05T22:57:14.428Z,1.58
2023-05-05T22:59:45.375Z,1.27
2023-05-05T23:02:16.299Z,1.92
2023-05-05T23:04:47.429Z,1.55
2023-05-05T23:07:19.877Z,1.83
2023-05-05T23:09:50.723Z,1.75
2023-05-05T23:12:21.595Z,1.80
2023-05-05T23:14:52.495Z,1.67
2023-05-05T23:17:23.493Z,1.60
2023-05-05T23:19:54.414Z,1.73
2023-05-05T23:22:24.616Z,1.50
2023-05-05T23:24:54.787Z,2.15
2023-05-05T23:27:23.778Z,1.45
2023-05-05T23:29:54.630Z,1.67
2023-05-05T23:32:25.644Z,2.10
2023-05-05T23:34:56.855Z,1.25
2023-05-05T23:37:29.107Z,1.80
2023-05-05T23:39:59.455Z,2.15
2023-05-05T23:42:30.330Z,2.05
2023-05-05T23:45:01.311Z,1.73
2023-05-05T23:47:32.328Z,1.60
2023-05-05T23:50:03.579Z,1.60
2023-05-05T23:52:35.863Z,2.25
2023-05-05T23:55:07.556Z,1.88
2023-05-05T23:57:39.018Z,1.52
